Time;durP1;ratioP1;P1;durP2;ratioP2;P2;SDS_P1;SDS_P2;PMS_P1;PMS_P2;Temp;Humidity;BMP_temperature;BMP_pressure;BME280_temperature;BME280_humidity;BME280_pressure;Samples;Min_cycle;Max_cycle;Signal;HPM_P1;HPM_P2
2021/05/07 00:00:31;;;;;;;8.10;3.85;;;14.90;99.90;;;;;;4968815;28;20141;-69
2021/05/07 00:02:57;;;;;;;11.15;3.78;;;14.80;99.90;;;;;;4972876;28;20655;-70
2021/05/07 00:05:22;;;;;;;5.88;3.58;;;14.80;99.90;;;;;;4965629;28;20512;-70
2021/05/07 00:07:48;;;;;;;7.45;3.40;;;14.80;99.90;;;;;;4954825;28;20027;-70
2021/05/07 00:10:14;;;;;;;7.15;3.60;;;14.70;99.90;;;;;;4965209;28;20671;-70
2021/05/07 00:12:41;;;;;;;9.80;3.67;;;14.70;99.90;;;;;;4955138;29;20031;-70
2021/05/07 00:15:07;;;;;;;6.60;3.75;;;14.60;99.90;;;;;;4965701;28;20027;-70
2021/05/07 00:17:33;;;;;;;7.32;3.40;;;14.70;99.90;;;;;;4954803;29;20023;-70
2021/05/07 00:19:58;;;;;;;8.60;3.55;;;14.60;99.90;;;;;;4965622;28;20468;-70
2021/05/07 00:22:24;;;;;;;7.35;3.88;;;14.60;99.90;;;;;;4953903;29;20556;-71
2021/05/07 00:24:50;;;;;;;11.15;4.28;;;14.60;99.90;;;;;;4965232;28;20054;-70
2021/05/07 00:27:17;;;;;;;8.32;4.15;;;14.60;99.90;;;;;;4954419;28;20480;-71
2021/05/07 00:29:43;;;;;;;8.57;4.18;;;14.50;99.90;;;;;;4964393;28;20391;-70
2021/05/07 00:32:09;;;;;;;14.30;4.63;;;14.50;99.90;;;;;;4955593;28;20027;-69
2021/05/07 00:34:35;;;;;;;6.53;3.65;;;14.30;99.90;;;;;;4963181;28;20031;-70
2021/05/07 00:37:00;;;;;;;10.30;3.80;;;14.30;99.90;;;;;;4955412;28;20038;-71
2021/05/07 00:39:26;;;;;;;9.07;4.07;;;14.40;99.90;;;;;;4961893;28;20026;-69
2021/05/07 00:41:52;;;;;;;8.18;4.80;;;14.40;99.90;;;;;;4957725;28;20034;-70
2021/05/07 00:44:17;;;;;;;10.85;4.28;;;14.30;99.90;;;;;;4960718;28;20034;-69
2021/05/07 00:46:45;;;;;;;7.75;3.53;;;14.20;99.90;;;;;;4958793;28;20015;-70
2021/05/07 00:49:11;;;;;;;9.68;4.28;;;14.20;99.90;;;;;;4959756;28;20046;-70
2021/05/07 00:51:37;;;;;;;6.20;4.13;;;14.30;99.90;;;;;;4958508;28;20254;-70
2021/05/07 00:54:04;;;;;;;8.55;4.00;;;14.30;99.90;;;;;;4958544;28;20040;-69
2021/05/07 00:56:29;;;;;;;11.15;3.90;;;14.30;99.90;;;;;;4960468;28;20039;-69
2021/05/07 00:58:55;;;;;;;9.00;3.90;;;14.30;99.90;;;;;;4956996;28;20028;-69
2021/05/07 01:01:21;;;;;;;11.52;3.45;;;14.40;99.90;;;;;;4961556;28;20028;-70
2021/05/07 01:03:46;;;;;;;11.15;3.70;;;14.40;99.90;;;;;;4956341;28;20062;-70
2021/05/07 01:06:12;;;;;;;7.40;3.83;;;14.30;99.90;;;;;;4961487;28;20781;-71
2021/05/07 01:08:38;;;;;;;8.75;3.80;;;14.40;99.90;;;;;;4956354;28;20094;-71
2021/05/07 01:11:04;;;;;;;11.00;4.18;;;14.30;99.90;;;;;;4961962;28;20630;-71
2021/05/07 01:13:30;;;;;;;10.02;3.20;;;14.30;99.90;;;;;;4956114;28;20101;-70
2021/05/07 01:15:56;;;;;;;13.13;4.10;;;14.20;99.90;;;;;;4962182;28;20090;-71
2021/05/07 01:18:21;;;;;;;11.60;4.45;;;14.20;99.90;;;;;;4956221;28;20030;-71
2021/05/07 01:20:47;;;;;;;8.13;4.10;;;14.30;99.90;;;;;;4962085;28;20027;-71
2021/05/07 01:23:13;;;;;;;10.10;4.15;;;14.10;99.90;;;;;;4955033;28;20023;-71
2021/05/07 01:25:44;;;;;;;8.27;3.58;;;14.20;99.90;;;;;;4966983;28;20039;-69
2021/05/07 01:28:12;;;;;;;9.27;3.55;;;14.40;99.90;;;;;;4970787;28;20436;-71
2021/05/07 01:30:40;;;;;;;11.07;3.53;;;14.20;99.90;;;;;;4965569;28;20027;-71
2021/05/07 01:33:07;;;;;;;7.78;3.60;;;14.10;99.90;;;;;;4970851;28;20042;-70
2021/05/07 01:35:34;;;;;;;8.07;3.70;;;14.20;99.90;;;;;;4968791;28;20070;-70
2021/05/07 01:38:06;;;;;;;8.25;3.40;;;14.20;99.90;;;;;;4970838;28;20607;-69
2021/05/07 01:40:36;;;;;;;10.48;2.97;;;14.20;99.90;;;;;;4969499;28;20117;-69
2021/05/07 01:43:02;;;;;;;7.25;2.83;;;14.20;99.90;;;;;;4970126;28;20022;-70
2021/05/07 01:45:31;;;;;;;10.05;3.00;;;14.20;99.90;;;;;;4967459;28;20467;-71
2021/05/07 01:47:57;;;;;;;10.30;3.08;;;14.20;99.90;;;;;;4959965;28;20387;-70
2021/05/07 01:50:28;;;;;;;9.48;3.10;;;14.20;99.90;;;;;;4963776;28;20027;-71
2021/05/07 01:52:55;;;;;;;5.82;2.60;;;14.00;99.90;;;;;;4959824;28;20443;-71
2021/05/07 01:55:26;;;;;;;8.18;2.78;;;13.90;99.90;;;;;;4962192;28;20055;-70
2021/05/07 01:57:52;;;;;;;10.90;3.15;;;14.10;99.90;;;;;;4965567;28;20547;-69
2021/05/07 02:00:21;;;;;;;7.03;3.42;;;14.10;99.90;;;;;;4963444;28;20122;-70
2021/05/07 02:02:47;;;;;;;10.32;3.00;;;14.00;99.90;;;;;;4957640;28;20054;-70
2021/05/07 02:05:14;;;;;;;7.15;2.83;;;13.90;99.90;;;;;;4963488;28;20038;-69
2021/05/07 02:07:42;;;;;;;6.72;2.80;;;14.00;99.90;;;;;;4964301;28;20078;-70
2021/05/07 02:10:10;;;;;;;7.43;3.08;;;14.00;99.90;;;;;;4963729;28;20039;-70
2021/05/07 02:12:36;;;;;;;11.07;3.10;;;14.00;99.90;;;;;;4955811;28;20066;-70
2021/05/07 02:15:07;;;;;;;6.05;2.72;;;14.00;99.90;;;;;;4964370;28;20039;-70
2021/05/07 02:17:33;;;;;;;10.38;3.13;;;13.90;99.90;;;;;;4962829;28;20033;-70
2021/05/07 02:19:59;;;;;;;7.15;2.90;;;13.90;99.90;;;;;;4965097;28;20113;-71
2021/05/07 02:22:24;;;;;;;5.45;2.63;;;13.80;99.90;;;;;;4968175;28;20419;-69
2021/05/07 02:24:50;;;;;;;4.85;2.50;;;13.90;99.90;;;;;;4965749;28;20023;-70
2021/05/07 02:27:16;;;;;;;5.50;2.30;;;13.90;99.90;;;;;;4952478;28;20036;-69
2021/05/07 02:29:41;;;;;;;4.25;2.45;;;13.90;99.90;;;;;;4961361;28;20030;-71
2021/05/07 02:32:07;;;;;;;9.60;2.80;;;13.90;99.90;;;;;;4953962;28;20023;-69
2021/05/07 02:34:33;;;;;;;7.70;2.70;;;13.90;99.90;;;;;;4960626;28;20027;-70
2021/05/07 02:36:58;;;;;;;5.22;2.40;;;13.70;99.90;;;;;;4954732;28;20027;-71
2021/05/07 02:39:24;;;;;;;8.95;2.60;;;13.80;99.90;;;;;;4959313;28;20034;-70
2021/05/07 02:41:50;;;;;;;5.50;2.38;;;13.70;99.90;;;;;;4956044;28;20050;-70
2021/05/07 02:44:15;;;;;;;6.00;2.22;;;13.80;99.90;;;;;;4958037;28;20027;-71
2021/05/07 02:46:41;;;;;;;7.22;2.70;;;13.60;99.90;;;;;;4957160;28;20487;-70
2021/05/07 02:49:07;;;;;;;7.43;2.42;;;13.80;99.90;;;;;;4956865;28;20031;-70
2021/05/07 02:51:34;;;;;;;3.67;2.40;;;13.70;99.90;;;;;;4966098;28;20098;-70
2021/05/07 02:54:01;;;;;;;6.32;2.70;;;13.90;99.90;;;;;;4955987;28;20063;-71
2021/05/07 02:56:27;;;;;;;6.47;2.58;;;13.90;99.90;;;;;;4958540;28;20031;-71
2021/05/07 02:58:52;;;;;;;8.55;2.35;;;13.80;99.90;;;;;;4954904;28;20037;-71
2021/05/07 03:01:18;;;;;;;5.00;2.50;;;13.80;99.90;;;;;;4959923;28;20146;-71
2021/05/07 03:03:44;;;;;;;8.52;2.72;;;13.90;99.90;;;;;;4954241;28;20507;-70
2021/05/07 03:06:10;;;;;;;7.90;2.50;;;13.90;99.90;;;;;;4959409;28;20031;-70
2021/05/07 03:08:37;;;;;;;7.43;2.55;;;13.90;99.90;;;;;;4954297;28;20058;-69
2021/05/07 03:11:03;;;;;;;5.15;2.60;;;13.80;99.90;;;;;;4960181;28;20078;-70
2021/05/07 03:13:29;;;;;;;4.13;2.55;;;13.70;99.90;;;;;;4954321;28;20391;-71
2021/05/07 03:15:55;;;;;;;7.80;2.42;;;13.70;99.90;;;;;;4959419;28;20039;-70
2021/05/07 03:18:21;;;;;;;8.27;2.67;;;13.80;99.90;;;;;;4954209;28;20035;-71
2021/05/07 03:20:48;;;;;;;5.85;2.63;;;13.50;99.90;;;;;;4959212;28;20177;-69
2021/05/07 03:23:14;;;;;;;6.95;2.60;;;13.80;99.90;;;;;;4953559;28;20115;-70
2021/05/07 03:25:40;;;;;;;8.10;2.85;;;13.40;99.90;;;;;;4960145;28;20114;-70
2021/05/07 03:28:07;;;;;;;4.38;2.42;;;13.60;99.90;;;;;;4952217;28;20023;-69
2021/05/07 03:30:34;;;;;;;5.55;2.22;;;13.70;99.90;;;;;;4961287;28;20031;-71
2021/05/07 03:33:01;;;;;;;4.03;2.15;;;13.60;99.90;;;;;;4952090;28;20061;-69
2021/05/07 03:35:26;;;;;;;5.78;2.50;;;13.60;99.90;;;;;;4961336;28;20046;-70
2021/05/07 03:37:52;;;;;;;7.75;2.78;;;13.60;99.90;;;;;;4951384;28;20031;-71
2021/05/07 03:40:18;;;;;;;5.53;2.53;;;13.60;99.90;;;;;;4961468;28;20114;-70
2021/05/07 03:42:45;;;;;;;3.53;2.03;;;13.60;99.90;;;;;;4950145;29;20419;-70
2021/05/07 03:45:12;;;;;;;4.05;2.35;;;13.70;99.90;;;;;;4962235;28;20057;-70
2021/05/07 03:47:38;;;;;;;7.80;2.58;;;13.70;99.90;;;;;;4950962;28;20070;-70
2021/05/07 03:50:05;;;;;;;7.38;2.50;;;13.60;99.90;;;;;;4962274;28;20451;-70
2021/05/07 03:52:30;;;;;;;5.28;2.40;;;13.70;99.90;;;;;;4950785;29;20032;-70
2021/05/07 03:54:56;;;;;;;9.40;2.42;;;13.60;99.90;;;;;;4961987;28;20038;-70
2021/05/07 03:57:24;;;;;;;4.45;2.20;;;13.60;99.90;;;;;;4951291;28;20492;-70
2021/05/07 03:59:49;;;;;;;5.03;2.30;;;13.70;99.90;;;;;;4961540;28;20035;-69
2021/05/07 04:02:16;;;;;;;3.22;1.85;;;13.60;99.90;;;;;;4951568;28;20451;-70
2021/05/07 04:04:43;;;;;;;2.78;1.85;;;13.60;99.90;;;;;;4960026;28;20103;-70
2021/05/07 04:07:10;;;;;;;3.67;1.92;;;13.60;99.90;;;;;;4951832;28;20500;-70
2021/05/07 04:09:39;;;;;;;3.60;1.70;;;13.60;99.90;;;;;;4959201;28;20046;-71
2021/05/07 04:12:17;;;;;;;6.68;1.98;;;13.50;99.90;;;;;;4952798;28;20059;-70
2021/05/07 04:14:43;;;;;;;3.92;1.70;;;13.60;99.90;;;;;;4960418;28;20047;-71
2021/05/07 04:17:09;;;;;;;2.85;1.83;;;13.60;99.90;;;;;;4952343;28;20062;-70
2021/05/07 04:19:35;;;;;;;4.15;1.77;;;13.50;99.90;;;;;;4959381;28;20038;-69
2021/05/07 04:22:01;;;;;;;3.38;1.75;;;13.40;99.90;;;;;;4952772;28;20030;-70
2021/05/07 04:24:26;;;;;;;3.15;1.80;;;13.50;99.90;;;;;;4958163;28;20034;-70
2021/05/07 04:26:54;;;;;;;2.60;1.92;;;13.50;99.90;;;;;;4956164;28;20027;-70
2021/05/07 04:29:25;;;;;;;2.25;2.00;;;13.50;99.90;;;;;;4960516;28;20030;-71
2021/05/07 04:31:52;;;;;;;5.30;1.90;;;13.50;99.90;;;;;;4958503;28;20015;-71
2021/05/07 04:34:17;;;;;;;3.53;2.17;;;13.50;99.90;;;;;;4960202;28;20030;-70
2021/05/07 04:36:43;;;;;;;2.97;1.90;;;13.40;99.90;;;;;;4958588;28;20527;-70
2021/05/07 04:39:09;;;;;;;3.80;2.03;;;13.60;99.90;;;;;;4959114;28;20027;-71
2021/05/07 04:41:35;;;;;;;5.28;2.25;;;13.50;99.90;;;;;;4960344;28;20440;-70
2021/05/07 04:44:02;;;;;;;3.80;1.98;;;13.40;99.90;;;;;;4958376;28;20027;-70
2021/05/07 04:46:28;;;;;;;3.45;2.22;;;13.50;99.90;;;;;;4961384;28;20034;-70
2021/05/07 04:48:54;;;;;;;3.17;2.45;;;13.50;99.90;;;;;;4960299;28;20018;-71
2021/05/07 04:51:20;;;;;;;4.90;1.90;;;13.50;99.90;;;;;;4972473;28;20169;-69
2021/05/07 04:53:46;;;;;;;2.00;1.55;;;13.70;99.90;;;;;;4969922;28;20121;-69
2021/05/07 04:56:11;;;;;;;4.57;2.08;;;13.70;99.90;;;;;;4969539;28;20031;-69
2021/05/07 04:58:37;;;;;;;2.83;2.03;;;13.60;99.90;;;;;;4969030;28;20097;-69
2021/05/07 05:01:03;;;;;;;5.68;2.30;;;13.60;99.90;;;;;;4962413;28;20078;-69
2021/05/07 05:03:28;;;;;;;2.85;2.08;;;13.60;99.90;;;;;;4956795;28;20668;-69
2021/05/07 05:05:54;;;;;;;3.30;2.30;;;13.60;99.90;;;;;;4961539;28;20038;-69
2021/05/07 05:08:24;;;;;;;4.55;2.17;;;13.50;99.90;;;;;;4957791;28;20031;-69
2021/05/07 05:10:59;;;;;;;3.33;2.17;;;13.70;99.90;;;;;;4965134;28;20427;-68
2021/05/07 05:13:26;;;;;;;5.68;2.50;;;13.70;99.90;;;;;;4962981;28;20039;-69
2021/05/07 05:15:53;;;;;;;5.90;2.53;;;13.60;99.90;;;;;;4964166;28;20027;-68
2021/05/07 05:18:28;;;;;;;4.43;2.15;;;13.50;99.90;;;;;;4963706;28;20023;-68
2021/05/07 05:20:59;;;;;;;3.60;2.50;;;13.70;99.90;;;;;;4964871;28;20042;-68
2021/05/07 05:23:26;;;;;;;2.53;2.33;;;13.70;99.90;;;;;;4963698;28;20412;-68
2021/05/07 05:25:52;;;;;;;4.82;2.38;;;13.70;99.90;;;;;;4966560;28;20043;-68
2021/05/07 05:28:18;;;;;;;3.63;2.90;;;13.70;99.90;;;;;;4962638;28;20089;-69
2021/05/07 05:30:44;;;;;;;5.32;2.63;;;13.70;99.90;;;;;;4968193;28;20021;-68
2021/05/07 05:33:10;;;;;;;3.53;2.40;;;13.80;99.90;;;;;;4962377;28;20124;-69
2021/05/07 05:35:36;;;;;;;5.07;2.33;;;13.60;99.90;;;;;;4967346;28;20054;-68
2021/05/07 05:38:02;;;;;;;4.53;2.47;;;13.60;99.90;;;;;;4961259;28;20424;-69
2021/05/07 05:40:28;;;;;;;3.53;2.03;;;13.80;99.90;;;;;;4968806;28;20102;-69
2021/05/07 05:42:54;;;;;;;4.22;2.30;;;13.70;99.90;;;;;;4962209;28;20139;-68
2021/05/07 05:45:22;;;;;;;5.68;2.63;;;13.70;99.90;;;;;;4966909;28;20029;-69
2021/05/07 05:47:48;;;;;;;4.78;2.72;;;13.60;99.90;;;;;;4962359;28;20097;-69
2021/05/07 05:50:14;;;;;;;4.07;2.58;;;13.80;99.90;;;;;;4968073;28;20058;-68
2021/05/07 05:52:39;;;;;;;4.40;2.47;;;13.90;99.90;;;;;;4959973;28;20029;-68
2021/05/07 05:55:06;;;;;;;4.07;2.17;;;13.90;99.90;;;;;;4965203;28;20107;-68
2021/05/07 05:57:33;;;;;;;4.30;2.92;;;13.80;99.90;;;;;;4963654;28;20198;-69
2021/05/07 05:59:59;;;;;;;9.65;2.72;;;13.80;99.90;;;;;;4964589;28;20023;-68
2021/05/07 06:02:25;;;;;;;4.30;3.03;;;13.90;99.90;;;;;;4962889;28;20042;-68
2021/05/07 06:04:50;;;;;;;4.38;2.97;;;13.90;99.90;;;;;;4965216;28;20031;-68
2021/05/07 06:07:16;;;;;;;6.82;3.03;;;13.80;99.90;;;;;;4970955;28;20600;-69
2021/05/07 06:09:42;;;;;;;4.75;2.97;;;13.80;99.90;;;;;;4965912;28;20551;-68
2021/05/07 06:12:08;;;;;;;5.43;3.42;;;14.00;99.90;;;;;;4954404;28;20042;-69
2021/05/07 06:14:34;;;;;;;5.60;3.30;;;14.00;99.90;;;;;;4960378;28;20023;-69
2021/05/07 06:16:59;;;;;;;4.90;3.17;;;13.80;99.90;;;;;;4955891;28;20519;-69
2021/05/07 06:19:26;;;;;;;4.28;3.70;;;13.80;99.90;;;;;;4958971;28;20031;-69
2021/05/07 06:21:52;;;;;;;5.90;3.53;;;13.90;99.90;;;;;;4955604;28;20031;-68
2021/05/07 06:24:17;;;;;;;8.50;4.30;;;13.90;99.90;;;;;;4958112;28;20027;-68
2021/05/07 06:26:43;;;;;;;5.70;3.67;;;13.90;99.90;;;;;;4957459;28;20535;-68
2021/05/07 06:29:09;;;;;;;6.03;3.88;;;13.80;99.90;;;;;;4956541;28;20453;-68
2021/05/07 06:31:34;;;;;;;7.18;3.95;;;14.00;99.90;;;;;;4963495;28;20632;-68
2021/05/07 06:34:00;;;;;;;7.22;3.72;;;14.20;99.90;;;;;;4962112;28;20518;-68
2021/05/07 06:36:28;;;;;;;6.30;3.78;;;14.10;99.90;;;;;;4961878;28;20522;-68
2021/05/07 06:38:53;;;;;;;7.57;4.10;;;14.00;99.90;;;;;;4964879;28;20042;-68
2021/05/07 06:41:21;;;;;;;6.13;3.75;;;14.20;99.90;;;;;;4964117;28;20026;-68
2021/05/07 06:43:47;;;;;;;9.07;4.18;;;14.40;99.90;;;;;;4963749;28;20033;-68
2021/05/07 06:46:13;;;;;;;4.40;3.92;;;14.20;99.90;;;;;;4970643;28;20027;-69
2021/05/07 06:48:40;;;;;;;5.10;3.90;;;14.50;99.90;;;;;;4967033;28;20633;-69
2021/05/07 06:51:06;;;;;;;10.98;4.30;;;14.50;99.90;;;;;;4964046;28;20027;-68
2021/05/07 06:53:32;;;;;;;12.38;3.90;;;14.70;99.90;;;;;;4961036;28;20030;-68
2021/05/07 06:55:57;;;;;;;6.97;3.60;;;14.70;99.90;;;;;;4966425;28;20039;-68
2021/05/07 06:58:23;;;;;;;7.65;3.10;;;14.80;99.90;;;;;;4960892;28;20403;-69
2021/05/07 07:00:49;;;;;;;5.22;3.17;;;14.80;99.90;;;;;;4960040;28;20038;-69
2021/05/07 07:03:14;;;;;;;6.78;3.40;;;14.80;99.90;;;;;;4953078;28;20026;-69
2021/05/07 07:05:40;;;;;;;5.05;3.25;;;14.80;99.90;;;;;;4960136;28;20567;-69
2021/05/07 07:08:06;;;;;;;6.40;3.00;;;14.70;99.90;;;;;;4952263;28;20035;-69
2021/05/07 07:10:31;;;;;;;3.60;2.40;;;14.50;99.90;;;;;;4962154;28;20050;-68
2021/05/07 07:12:57;;;;;;;5.35;2.97;;;14.50;99.90;;;;;;4962488;28;20547;-68
2021/05/07 07:15:23;;;;;;;5.18;2.50;;;14.60;99.90;;;;;;4962398;28;20031;-68
2021/05/07 07:17:48;;;;;;;5.47;2.70;;;14.60;99.90;;;;;;4951465;29;20041;-68
2021/05/07 07:20:14;;;;;;;9.73;2.92;;;14.70;99.90;;;;;;4962405;28;20019;-68
2021/05/07 07:22:40;;;;;;;8.32;3.03;;;14.60;99.90;;;;;;4951101;28;20074;-68
2021/05/07 07:25:06;;;;;;;3.40;2.88;;;14.70;99.90;;;;;;4962025;28;20503;-68
2021/05/07 07:27:31;;;;;;;4.53;2.63;;;14.70;99.90;;;;;;4951639;28;20488;-68
2021/05/07 07:29:57;;;;;;;6.80;2.95;;;14.60;99.90;;;;;;4962199;28;20093;-68
2021/05/07 07:32:23;;;;;;;3.10;2.28;;;14.70;99.90;;;;;;4953715;28;20039;-63
2021/05/07 07:34:48;;;;;;;4.63;2.15;;;14.80;99.90;;;;;;4961044;28;20114;-63
2021/05/07 07:37:14;;;;;;;4.68;2.50;;;14.70;99.90;;;;;;4952476;28;20035;-63
2021/05/07 07:39:40;;;;;;;4.57;2.10;;;14.90;99.90;;;;;;4958535;28;20514;-63
2021/05/07 07:42:05;;;;;;;3.72;2.10;;;14.90;99.90;;;;;;4953301;28;20459;-63
2021/05/07 07:44:31;;;;;;;4.13;2.20;;;15.00;99.90;;;;;;4958824;28;20519;-63
2021/05/07 07:46:57;;;;;;;5.47;2.58;;;15.00;99.90;;;;;;4955046;28;20114;-63
2021/05/07 07:49:22;;;;;;;2.90;2.05;;;15.00;99.90;;;;;;4957711;28;20674;-63
2021/05/07 07:51:48;;;;;;;3.75;2.55;;;15.00;99.90;;;;;;4955606;28;20027;-63
2021/05/07 07:54:14;;;;;;;5.03;1.63;;;15.00;99.90;;;;;;4955940;28;20035;-63
2021/05/07 07:56:40;;;;;;;6.18;1.90;;;15.00;99.90;;;;;;4957205;28;20035;-63
2021/05/07 07:59:06;;;;;;;3.10;1.75;;;14.90;99.90;;;;;;4955268;28;20024;-63
2021/05/07 08:01:32;;;;;;;2.22;1.80;;;15.00;99.90;;;;;;4959142;28;20035;-63
2021/05/07 08:03:58;;;;;;;4.32;2.33;;;15.10;99.90;;;;;;4958083;28;20035;-63
2021/05/07 08:06:24;;;;;;;5.97;2.20;;;15.10;99.90;;;;;;4962243;28;20519;-63
2021/05/07 08:08:50;;;;;;;4.47;2.00;;;15.10;99.90;;;;;;4957481;28;20028;-63
2021/05/07 08:11:16;;;;;;;5.40;2.35;;;15.10;99.90;;;;;;4962988;28;20716;-63
2021/05/07 08:13:43;;;;;;;5.45;1.90;;;15.20;99.90;;;;;;4962451;28;20515;-64
2021/05/07 08:16:09;;;;;;;5.10;2.22;;;15.10;99.90;;;;;;4965385;28;20034;-65
2021/05/07 08:18:34;;;;;;;4.30;2.75;;;15.10;99.90;;;;;;4957167;28;20038;-64
2021/05/07 08:21:00;;;;;;;4.20;2.53;;;15.30;99.90;;;;;;4962622;28;20172;-64
2021/05/07 08:23:26;;;;;;;9.52;2.22;;;15.30;99.90;;;;;;4984265;28;20031;-64
2021/05/07 08:25:51;;;;;;;6.53;2.42;;;15.20;99.90;;;;;;4962903;28;20644;-64
2021/05/07 08:28:17;;;;;;;8.93;2.40;;;15.30;99.90;;;;;;4961376;28;20114;-64
2021/05/07 08:30:43;;;;;;;5.82;2.67;;;15.30;99.90;;;;;;4964271;28;20057;-64
2021/05/07 08:33:09;;;;;;;4.05;2.38;;;15.20;99.90;;;;;;4955322;28;20019;-64
2021/05/07 08:35:35;;;;;;;2.95;2.40;;;15.30;99.90;;;;;;4968013;28;20070;-68
2021/05/07 08:38:01;;;;;;;4.45;2.03;;;15.50;99.90;;;;;;4963831;28;20042;-68
2021/05/07 08:40:27;;;;;;;2.97;1.90;;;15.50;99.90;;;;;;4965290;28;20027;-68
2021/05/07 08:42:54;;;;;;;8.77;2.00;;;15.40;99.90;;;;;;4964833;28;20031;-68
2021/05/07 08:45:20;;;;;;;2.95;1.83;;;15.30;99.90;;;;;;4965901;28;20028;-68
2021/05/07 08:47:46;;;;;;;5.82;2.33;;;15.40;99.90;;;;;;4963132;28;20019;-68
2021/05/07 08:50:12;;;;;;;3.33;1.85;;;15.50;99.90;;;;;;4967018;28;20062;-68
2021/05/07 08:52:37;;;;;;;3.80;2.40;;;15.40;99.90;;;;;;4963163;28;20022;-68
2021/05/07 08:55:05;;;;;;;3.05;1.95;;;15.30;99.90;;;;;;4965935;28;20123;-68
2021/05/07 08:57:31;;;;;;;2.53;1.92;;;15.30;99.90;;;;;;4973591;28;20040;-69
2021/05/07 08:59:57;;;;;;;6.50;2.13;;;15.30;99.90;;;;;;4968252;28;20019;-68
2021/05/07 09:02:26;;;;;;;6.82;2.75;;;15.40;99.90;;;;;;4966684;28;20034;-68
2021/05/07 09:04:55;;;;;;;5.45;2.50;;;15.60;99.90;;;;;;4964373;28;20030;-66
2021/05/07 09:07:21;;;;;;;3.33;2.15;;;15.60;99.90;;;;;;4964174;28;20034;-67
2021/05/07 09:09:54;;;;;;;8.15;2.30;;;15.60;99.90;;;;;;4964648;28;20014;-67
2021/05/07 09:12:27;;;;;;;6.85;3.08;;;15.80;99.90;;;;;;4938728;28;20048;-65
2021/05/07 09:14:53;;;;;;;6.68;2.30;;;16.00;99.90;;;;;;4938680;28;20508;-67
2021/05/07 09:17:21;;;;;;;6.28;2.72;;;16.10;99.90;;;;;;4935186;28;20051;-66
2021/05/07 09:19:47;;;;;;;3.90;2.45;;;16.20;99.90;;;;;;4939811;28;20019;-71
2021/05/07 09:22:22;;;;;;;3.88;2.85;;;16.10;99.90;;;;;;4941433;28;20031;-70
2021/05/07 09:24:48;;;;;;;2.97;2.30;;;16.00;99.90;;;;;;4946803;29;20012;-71
2021/05/07 09:27:21;;;;;;;2.03;1.70;;;16.10;99.90;;;;;;4945038;28;20081;-73
2021/05/07 09:29:47;;;;;;;0.88;0.80;;;15.90;99.90;;;;;;4945353;29;20015;-71
2021/05/07 09:32:13;;;;;;;4.63;0.38;;;15.70;99.90;;;;;;4952021;29;20031;-69
2021/05/07 09:34:39;;;;;;;0.30;0.17;;;15.10;99.90;;;;;;4947586;28;20030;-73
2021/05/07 09:37:17;;;;;;;0.80;0.20;;;15.20;99.90;;;;;;4936425;28;20048;-73
2021/05/07 09:39:42;;;;;;;0.22;0.20;;;15.20;99.90;;;;;;4942706;29;20432;-73
2021/05/07 09:42:08;;;;;;;0.28;0.10;;;15.10;99.90;;;;;;4936755;28;20035;-72
2021/05/07 09:44:35;;;;;;;0.43;0.20;;;15.10;99.90;;;;;;4941381;29;20107;-71
2021/05/07 09:47:12;;;;;;;0.15;0.15;;;15.00;99.90;;;;;;4937767;28;20031;-70
2021/05/07 09:49:38;;;;;;;1.17;0.20;;;15.20;99.90;;;;;;4942010;29;20082;-73
2021/05/07 09:52:04;;;;;;;0.22;0.20;;;15.30;99.90;;;;;;4936557;29;20032;-74
2021/05/07 09:54:30;;;;;;;0.22;0.20;;;15.20;99.90;;;;;;4940804;29;20023;-71
2021/05/07 09:56:57;;;;;;;1.00;0.30;;;15.40;99.90;;;;;;4937841;29;20043;-72
2021/05/07 09:59:23;;;;;;;1.55;0.30;;;15.80;99.90;;;;;;4938565;28;20400;-73
2021/05/07 10:01:49;;;;;;;1.23;0.35;;;15.70;99.90;;;;;;4937576;28;20032;-72
2021/05/07 10:04:16;;;;;;;1.23;0.40;;;15.60;99.90;;;;;;4938746;29;20023;-72
2021/05/07 10:06:43;;;;;;;0.73;0.38;;;15.60;99.90;;;;;;4938640;28;20070;-72
2021/05/07 10:09:10;;;;;;;0.22;0.22;;;15.70;99.90;;;;;;4937458;29;20481;-73
2021/05/07 10:11:39;;;;;;;2.33;0.40;;;15.70;99.90;;;;;;4954409;28;20066;-72
2021/05/07 10:14:12;;;;;;;0.98;0.30;;;15.70;99.90;;;;;;4956518;28;20035;-73
2021/05/07 10:16:39;;;;;;;0.47;0.30;;;15.80;99.90;;;;;;4959354;28;20408;-71
2021/05/07 10:19:06;;;;;;;0.30;0.20;;;15.80;99.90;;;;;;4956387;28;20062;-71
2021/05/07 10:21:51;;;;;;;0.88;0.30;;;15.80;99.90;;;;;;4959388;28;20031;-72
2021/05/07 10:24:19;;;;;;;0.57;0.20;;;16.00;99.90;;;;;;4956697;28;20034;-72
2021/05/07 10:26:51;;;;;;;2.67;0.20;;;16.10;99.90;;;;;;4958376;28;20019;-71
2021/05/07 10:29:27;;;;;;;1.23;0.20;;;16.40;99.90;;;;;;4957501;28;20051;-72
2021/05/07 10:31:55;;;;;;;0.20;0.20;;;16.40;99.90;;;;;;4962630;28;20038;-71
2021/05/07 10:34:23;;;;;;;0.52;0.20;;;16.70;99.90;;;;;;4970502;28;20034;-71
2021/05/07 10:36:54;;;;;;;0.40;0.30;;;16.20;99.90;;;;;;4962221;28;20046;-71
2021/05/07 10:39:29;;;;;;;0.55;0.30;;;15.90;99.90;;;;;;4960336;28;20026;-72
2021/05/07 10:41:57;;;;;;;3.03;0.20;;;15.70;99.90;;;;;;4967436;28;20473;-71
2021/05/07 10:44:24;;;;;;;0.35;0.20;;;15.70;99.90;;;;;;4965289;28;20605;-71
2021/05/07 10:47:06;;;;;;;0.65;0.25;;;15.80;99.90;;;;;;4957353;28;20028;-72
2021/05/07 10:49:42;;;;;;;1.27;0.20;;;15.70;99.90;;;;;;4959200;28;20161;-71
2021/05/07 10:52:10;;;;;;;2.40;0.30;;;15.80;99.90;;;;;;4954157;28;20027;-71
2021/05/07 10:54:39;;;;;;;1.27;0.20;;;15.70;99.90;;;;;;4959515;28;20057;-72
2021/05/07 10:57:16;;;;;;;0.20;0.20;;;15.80;99.90;;;;;;4955041;28;20046;-71
2021/05/07 10:59:52;;;;;;;0.47;0.40;;;15.70;99.90;;;;;;4960250;28;20027;-71
2021/05/07 11:02:17;;;;;;;0.32;0.20;;;15.80;99.90;;;;;;4966780;28;20077;-72
2021/05/07 11:04:48;;;;;;;0.30;0.30;;;15.90;99.90;;;;;;4965297;28;20478;-71
2021/05/07 11:07:28;;;;;;;2.47;0.20;;;15.90;99.90;;;;;;4953020;28;20558;-71
2021/05/07 11:10:06;;;;;;;0.35;0.25;;;16.20;99.90;;;;;;4961792;28;20074;-72
2021/05/07 11:12:32;;;;;;;0.68;0.30;;;16.10;99.90;;;;;;4951819;28;20035;-72
2021/05/07 11:14:58;;;;;;;0.82;0.40;;;16.20;99.90;;;;;;4962277;28;20487;-71
2021/05/07 11:17:23;;;;;;;0.15;0.15;;;16.30;99.90;;;;;;4952356;28;20058;-71
2021/05/07 11:19:49;;;;;;;0.30;0.30;;;16.10;99.90;;;;;;4964955;28;20026;-71
2021/05/07 11:22:15;;;;;;;1.90;0.30;;;16.00;99.90;;;;;;4966426;28;20046;-70
2021/05/07 11:24:42;;;;;;;0.28;0.28;;;16.00;99.90;;;;;;4964752;28;20038;-71
2021/05/07 11:27:19;;;;;;;0.40;0.30;;;16.00;99.90;;;;;;4968077;28;20420;-71
2021/05/07 11:29:45;;;;;;;0.43;0.30;;;16.20;99.90;;;;;;4965038;28;20033;-72
2021/05/07 11:32:16;;;;;;;0.45;0.30;;;16.40;99.90;;;;;;4954147;28;20031;-72
2021/05/07 11:34:42;;;;;;;0.20;0.20;;;16.40;99.90;;;;;;4960008;28;20081;-72
2021/05/07 11:37:09;;;;;;;0.65;0.55;;;16.20;99.90;;;;;;4953078;28;20103;-72
2021/05/07 11:39:34;;;;;;;1.65;0.30;;;16.10;99.90;;;;;;4958814;28;20043;-71
2021/05/07 11:42:00;;;;;;;2.47;0.30;;;16.00;99.90;;;;;;4966299;28;20091;-69
2021/05/07 11:44:26;;;;;;;0.43;0.38;;;16.10;99.90;;;;;;4961421;28;20089;-72
2021/05/07 11:46:57;;;;;;;0.50;0.30;;;16.00;99.90;;;;;;4970493;28;20137;-72
2021/05/07 11:49:22;;;;;;;0.75;0.40;;;16.10;99.90;;;;;;4963092;28;20065;-71
2021/05/07 11:51:49;;;;;;;2.15;0.30;;;16.10;99.90;;;;;;4954682;28;20532;-71
2021/05/07 11:54:14;;;;;;;0.65;0.30;;;16.30;99.90;;;;;;4956527;28;20019;-72
2021/05/07 11:56:40;;;;;;;0.38;0.28;;;16.50;99.90;;;;;;4957823;28;20054;-72
2021/05/07 11:59:06;;;;;;;0.35;0.35;;;16.40;99.90;;;;;;4954734;28;20028;-72
2021/05/07 12:01:31;;;;;;;2.78;0.57;;;16.80;99.90;;;;;;4970075;28;20436;-71
2021/05/07 12:04:02;;;;;;;0.77;0.40;;;16.70;99.90;;;;;;4965312;28;20027;-70
2021/05/07 12:06:29;;;;;;;1.95;0.30;;;16.60;99.90;;;;;;4961354;28;20030;-71
2021/05/07 12:09:09;;;;;;;0.68;0.43;;;16.60;99.90;;;;;;4965372;28;20027;-70
2021/05/07 12:11:35;;;;;;;1.48;0.40;;;16.60;99.90;;;;;;4963558;28;20105;-71
2021/05/07 12:14:14;;;;;;;0.73;0.35;;;16.60;99.90;;;;;;4964531;28;20110;-71
2021/05/07 12:16:40;;;;;;;0.82;0.38;;;16.50;99.90;;;;;;4957984;28;20555;-71
2021/05/07 12:19:07;;;;;;;0.77;0.40;;;16.80;99.90;;;;;;4953152;28;20039;-71
2021/05/07 12:21:44;;;;;;;0.95;0.40;;;17.00;99.90;;;;;;4969441;28;20023;-71
2021/05/07 12:24:14;;;;;;;2.90;0.40;;;17.30;99.90;;;;;;4964986;28;20027;-71
2021/05/07 12:26:48;;;;;;;1.33;0.40;;;17.70;99.90;;;;;;4957589;28;20092;-70
2021/05/07 12:29:13;;;;;;;0.35;0.30;;;17.80;99.90;;;;;;4955176;28;20042;-71
2021/05/07 12:31:39;;;;;;;0.25;0.20;;;17.70;99.90;;;;;;4957941;28;20023;-71
2021/05/07 12:34:16;;;;;;;0.45;0.20;;;17.80;99.90;;;;;;4954362;28;20066;-71
2021/05/07 12:36:43;;;;;;;5.20;0.30;;;17.40;99.90;;;;;;4957124;28;20035;-71
2021/05/07 12:39:11;;;;;;;0.68;0.40;;;17.50;99.90;;;;;;4954577;28;20114;-71
2021/05/07 12:41:36;;;;;;;2.95;0.50;;;17.30;99.90;;;;;;4957910;28;20061;-71
2021/05/07 12:44:03;;;;;;;0.77;0.30;;;17.20;99.90;;;;;;4953990;28;20054;-71